Terminal Aerodrome Forecast
Issued by NWS

Home | Current Version | Previous Version | Text Only | Print | Product List | Glossary On
Versions: 1 2 3 4 5 6 7 8 9 10 11 12 13 14 15 16 17 18 19 20 21 22 23 24
131
FTUS43 KDLH 220531
TAFHYR
TAF
KHYR 220531Z 2206/2306 20005KT P6SM SCT100
     FM221100 VRB03KT 3SM BR BKN100
     FM221700 23004KT P6SM BKN050
     FM222000 25005KT 5SM BR VCSH BKN015
     FM230000 33006KT P6SM BKN008=

USA.gov is the U.S. government's official web portal to all federal, state and local government web resources and services.